Alder Creek, OR

11:34 AM PDT on May 06, 2015 (GMT -0700)
Pearson | | Change Station
CLOSE
Current Station
Airport
Location: Vancouver,
Elevation: 26 ft
Nearby Weather Stations

Elev 26 ft 45.62 °N, 122.65 °W | Updated 41 minutes ago

Overcast
Overcast
54 °F
Feels Like 54 °F
N
8
Wind Variable Wind from West

Today
High -- | Low -- °F
--% Chance of Precip.
Yesterday
High -- | Low -- °F
Precip. -- in
5:50 AM 8:21 PM
Waning Gibbous, 93% visible
Pressure 30.12 in
Visibility 10.0 miles
Clouds Scattered Clouds 2900 ft
Scattered Clouds 4400 ft
Dew Point 42 °F
Humidity 64%
Rainfall 0.04 in
Snow Depth Not available.
UV 6 out of 12
Pollen 5.80 out of 12
Air Quality Not available.
Flu Activity Regional
METAR KVUO 061753Z AUTO 28007KT 240V310 10SM SCT029 SCT044 12/06 A3012 RMK AO2 SLP200 60002 T01220056 10122 20083 58001

More Conditions Fewer Conditions

Pressure 30.12 in
Visibility 10.0 miles
Clouds Scattered Clouds 2900 ft
Scattered Clouds 4400 ft
Dew Point 42 °F
Humidity 64%
Rainfall 0.04 in
Snow Depth Not available.
UV 6 out of 12
Pollen 5.80 out of 12
Air Quality Not available.
Flu Activity Regional
METAR KVUO 061753Z AUTO 28007KT 240V310 10SM SCT029 SCT044 12/06 A3012 RMK AO2 SLP200 60002 T01220056 10122 20083 58001

More Conditions Fewer Conditions

10-Day Weather Forecast

Almanac

Astronomy

May. 06, 2015 Rise Set
Actual Time
Civil Twilight
Nautical Twilight
Astronomical Twilight
Moon
Length of Visible Light
Length of Day
Tomorrow will be .
, % of the Moon is Illuminated

Today's Extremes

State Highs State Lows

Community

WunderPhotos

Upload Photos

1,818,978 photos uploaded!

WunderBlogs® & News

Nearby

Air Quality

  Air Quality AQ Index Pollutant
Not available.

Snow Depth

Station Depth Elevation

Earthquake Activity

City Distance Mag. Time & Date
Minimum magnitude displayed is 2.5.

Coastal Water Temperatures

Place Temperature

Stations

Nearby Weather Stations

Station Location Temp. Windchill Dew Point Humidity Wind Precip. Elev Updated Type